sensor_id;sensor_type;location;lat;lon;timestamp;pressure;altitude;pressure_sealevel;temperature;humidity
8160;BME280;27404;52.398;9.646;2023-05-17T00:01:31;101373.47;;;6.57;100.00
8160;BME280;27404;52.398;9.646;2023-05-17T00:03:57;101377.81;;;6.73;100.00
8160;BME280;27404;52.398;9.646;2023-05-17T00:06:23;101377.50;;;6.83;100.00
8160;BME280;27404;52.398;9.646;2023-05-17T00:08:48;101368.88;;;7.01;100.00
8160;BME280;27404;52.398;9.646;2023-05-17T00:11:14;101372.72;;;7.07;100.00
8160;BME280;27404;52.398;9.646;2023-05-17T00:13:39;101373.00;;;7.12;100.00
8160;BME280;27404;52.398;9.646;2023-05-17T00:16:06;101373.25;;;7.17;100.00
8160;BME280;27404;52.398;9.646;2023-05-17T00:18:32;101373.13;;;7.04;100.00
8160;BME280;27404;52.398;9.646;2023-05-17T00:20:57;101370.91;;;6.92;100.00
8160;BME280;27404;52.398;9.646;2023-05-17T00:23:23;101365.09;;;6.95;100.00
8160;BME280;27404;52.398;9.646;2023-05-17T00:25:48;101372.78;;;6.92;100.00
8160;BME280;27404;52.398;9.646;2023-05-17T00:28:14;101368.00;;;6.94;100.00
8160;BME280;27404;52.398;9.646;2023-05-17T00:30:39;101369.28;;;6.98;100.00
8160;BME280;27404;52.398;9.646;2023-05-17T00:33:04;101368.56;;;6.89;100.00
8160;BME280;27404;52.398;9.646;2023-05-17T00:35:30;101371.41;;;6.81;100.00
8160;BME280;27404;52.398;9.646;2023-05-17T00:37:55;101375.66;;;6.69;100.00
8160;BME280;27404;52.398;9.646;2023-05-17T00:40:21;101381.69;;;6.64;100.00
8160;BME280;27404;52.398;9.646;2023-05-17T00:42:46;101380.38;;;6.60;100.00
8160;BME280;27404;52.398;9.646;2023-05-17T00:45:12;101385.91;;;6.51;100.00
8160;BME280;27404;52.398;9.646;2023-05-17T00:47:37;101381.72;;;6.49;100.00
8160;BME280;27404;52.398;9.646;2023-05-17T00:50:04;101380.69;;;6.50;100.00
8160;BME280;27404;52.398;9.646;2023-05-17T00:52:30;101372.66;;;6.42;100.00
8160;BME280;27404;52.398;9.646;2023-05-17T00:54:56;101365.53;;;6.41;100.00
8160;BME280;27404;52.398;9.646;2023-05-17T00:57:21;101373.66;;;6.41;100.00
8160;BME280;27404;52.398;9.646;2023-05-17T00:59:48;101375.47;;;6.33;100.00
8160;BME280;27404;52.398;9.646;2023-05-17T01:02:13;101378.75;;;6.29;100.00
8160;BME280;27404;52.398;9.646;2023-05-17T01:04:40;101381.28;;;6.15;100.00
8160;BME280;27404;52.398;9.646;2023-05-17T01:07:05;101392.59;;;6.19;100.00
8160;BME280;27404;52.398;9.646;2023-05-17T01:09:31;101385.84;;;6.15;100.00
8160;BME280;27404;52.398;9.646;2023-05-17T01:12:58;101386.06;;;6.13;100.00
8160;BME280;27404;52.398;9.646;2023-05-17T01:15:14;101397.28;;;6.10;100.00
8160;BME280;27404;52.398;9.646;2023-05-17T01:26:06;101404.25;;;5.89;100.00
8160;BME280;27404;52.398;9.646;2023-05-17T01:28:33;101404.25;;;5.89;100.00
8160;BME280;27404;52.398;9.646;2023-05-17T01:31:02;101401.91;;;5.86;100.00
8160;BME280;27404;52.398;9.646;2023-05-17T01:33:28;101403.31;;;5.82;100.00
8160;BME280;27404;52.398;9.646;2023-05-17T01:35:54;101412.47;;;5.81;100.00
8160;BME280;27404;52.398;9.646;2023-05-17T01:38:19;101413.34;;;5.82;100.00
8160;BME280;27404;52.398;9.646;2023-05-17T01:43:28;101413.72;;;5.93;100.00
8160;BME280;27404;52.398;9.646;2023-05-17T01:46:30;101407.88;;;6.05;100.00
8160;BME280;27404;52.398;9.646;2023-05-17T01:51:51;101406.75;;;6.14;100.00
8160;BME280;27404;52.398;9.646;2023-05-17T01:54:22;101411.81;;;6.17;100.00
8160;BME280;27404;52.398;9.646;2023-05-17T01:56:59;101415.34;;;6.33;100.00
8160;BME280;27404;52.398;9.646;2023-05-17T01:59:26;101419.19;;;6.39;100.00
8160;BME280;27404;52.398;9.646;2023-05-17T02:01:56;101425.19;;;6.49;100.00
8160;BME280;27404;52.398;9.646;2023-05-17T02:04:24;101426.88;;;6.50;100.00
8160;BME280;27404;52.398;9.646;2023-05-17T02:06:50;101422.16;;;6.59;100.00
8160;BME280;27404;52.398;9.646;2023-05-17T02:09:15;101424.19;;;6.72;100.00
8160;BME280;27404;52.398;9.646;2023-05-17T02:11:41;101429.72;;;6.78;100.00
8160;BME280;27404;52.398;9.646;2023-05-17T02:14:06;101428.09;;;6.84;100.00
8160;BME280;27404;52.398;9.646;2023-05-17T02:16:31;101430.53;;;6.94;100.00
8160;BME280;27404;52.398;9.646;2023-05-17T02:18:57;101430.31;;;6.95;100.00
8160;BME280;27404;52.398;9.646;2023-05-17T02:21:22;101440.16;;;6.96;100.00
8160;BME280;27404;52.398;9.646;2023-05-17T02:23:48;101436.41;;;6.97;100.00
8160;BME280;27404;52.398;9.646;2023-05-17T02:26:13;101433.09;;;7.02;100.00
8160;BME280;27404;52.398;9.646;2023-05-17T02:28:38;101435.91;;;7.09;100.00
8160;BME280;27404;52.398;9.646;2023-05-17T02:31:06;101431.50;;;7.08;100.00
8160;BME280;27404;52.398;9.646;2023-05-17T02:33:32;101445.94;;;7.08;100.00
8160;BME280;27404;52.398;9.646;2023-05-17T02:35:58;101445.28;;;7.06;100.00
8160;BME280;27404;52.398;9.646;2023-05-17T02:38:23;101441.53;;;7.07;100.00
8160;BME280;27404;52.398;9.646;2023-05-17T02:40:48;101436.72;;;7.09;100.00
8160;BME280;27404;52.398;9.646;2023-05-17T02:43:15;101439.06;;;7.13;100.00
8160;BME280;27404;52.398;9.646;2023-05-17T02:45:42;101435.97;;;7.16;100.00
8160;BME280;27404;52.398;9.646;2023-05-17T02:48:08;101437.13;;;7.06;100.00
8160;BME280;27404;52.398;9.646;2023-05-17T02:50:33;101442.66;;;6.98;100.00
8160;BME280;27404;52.398;9.646;2023-05-17T02:52:59;101438.59;;;6.87;100.00
8160;BME280;27404;52.398;9.646;2023-05-17T02:55:25;101449.38;;;6.80;100.00
8160;BME280;27404;52.398;9.646;2023-05-17T02:57:50;101449.28;;;6.74;100.00
8160;BME280;27404;52.398;9.646;2023-05-17T03:00:16;101447.56;;;6.51;100.00
8160;BME280;27404;52.398;9.646;2023-05-17T03:02:41;101456.63;;;6.43;100.00
8160;BME280;27404;52.398;9.646;2023-05-17T03:05:07;101452.22;;;6.42;100.00
8160;BME280;27404;52.398;9.646;2023-05-17T03:07:32;101445.84;;;6.35;100.00
8160;BME280;27404;52.398;9.646;2023-05-17T03:09:58;101460.09;;;6.37;100.00
8160;BME280;27404;52.398;9.646;2023-05-17T03:12:23;101469.94;;;6.23;100.00
8160;BME280;27404;52.398;9.646;2023-05-17T03:14:49;101464.22;;;6.18;100.00
8160;BME280;27404;52.398;9.646;2023-05-17T03:17:14;101469.84;;;6.16;100.00
8160;BME280;27404;52.398;9.646;2023-05-17T03:19:40;101470.38;;;6.12;100.00
8160;BME280;27404;52.398;9.646;2023-05-17T03:22:05;101475.53;;;6.06;100.00
8160;BME280;27404;52.398;9.646;2023-05-17T03:24:31;101481.00;;;5.98;100.00
8160;BME280;27404;52.398;9.646;2023-05-17T03:26:56;101485.97;;;5.95;100.00
8160;BME280;27404;52.398;9.646;2023-05-17T03:29:21;101485.97;;;5.95;100.00
8160;BME280;27404;52.398;9.646;2023-05-17T03:31:47;101485.06;;;6.02;100.00
8160;BME280;27404;52.398;9.646;2023-05-17T03:34:13;101489.34;;;5.97;100.00
8160;BME280;27404;52.398;9.646;2023-05-17T03:36:38;101495.78;;;5.96;100.00
8160;BME280;27404;52.398;9.646;2023-05-17T03:39:04;101496.25;;;5.99;100.00
8160;BME280;27404;52.398;9.646;2023-05-17T03:41:30;101491.16;;;6.04;100.00
8160;BME280;27404;52.398;9.646;2023-05-17T03:43:56;101502.50;;;6.08;100.00
8160;BME280;27404;52.398;9.646;2023-05-17T03:46:22;101510.72;;;6.15;100.00
8160;BME280;27404;52.398;9.646;2023-05-17T03:48:47;101504.41;;;6.22;100.00
8160;BME280;27404;52.398;9.646;2023-05-17T03:51:12;101513.00;;;6.26;100.00
8160;BME280;27404;52.398;9.646;2023-05-17T03:53:38;101513.88;;;6.27;100.00
8160;BME280;27404;52.398;9.646;2023-05-17T03:56:10;101505.88;;;6.25;100.00
8160;BME280;27404;52.398;9.646;2023-05-17T03:58:36;101511.25;;;6.33;100.00
8160;BME280;27404;52.398;9.646;2023-05-17T04:01:02;101520.31;;;6.41;100.00
8160;BME280;27404;52.398;9.646;2023-05-17T04:03:27;101524.72;;;6.57;100.00
8160;BME280;27404;52.398;9.646;2023-05-17T04:06:00;101526.78;;;6.70;100.00
8160;BME280;27404;52.398;9.646;2023-05-17T04:08:26;101528.19;;;6.80;100.00
8160;BME280;27404;52.398;9.646;2023-05-17T04:10:51;101523.66;;;7.03;100.00
8160;BME280;27404;52.398;9.646;2023-05-17T04:13:17;101526.72;;;7.15;100.00
8160;BME280;27404;52.398;9.646;2023-05-17T04:15:42;101533.38;;;7.27;100.00
8160;BME280;27404;52.398;9.646;2023-05-17T04:18:07;101526.41;;;7.39;100.00
8160;BME280;27404;52.398;9.646;2023-05-17T04:20:33;101540.22;;;8.60;100.00
8160;BME280;27404;52.398;9.646;2023-05-17T04:22:58;101533.53;;;10.00;100.00
8160;BME280;27404;52.398;9.646;2023-05-17T04:25:24;101533.25;;;11.28;100.00
8160;BME280;27404;52.398;9.646;2023-05-17T04:27:49;101541.84;;;12.28;100.00
8160;BME280;27404;52.398;9.646;2023-05-17T04:30:15;101548.03;;;12.86;100.00
8160;BME280;27404;52.398;9.646;2023-05-17T04:32:41;101557.06;;;13.42;100.00
8160;BME280;27404;52.398;9.646;2023-05-17T04:35:07;101554.03;;;14.17;100.00
8160;BME280;27404;52.398;9.646;2023-05-17T04:37:33;101557.47;;;15.19;95.48
8160;BME280;27404;52.398;9.646;2023-05-17T04:39:58;101559.53;;;15.41;89.02
8160;BME280;27404;52.398;9.646;2023-05-17T04:42:24;101570.38;;;15.89;83.08
8160;BME280;27404;52.398;9.646;2023-05-17T04:44:50;101568.28;;;16.30;79.84
8160;BME280;27404;52.398;9.646;2023-05-17T04:47:15;101572.56;;;16.04;75.99
8160;BME280;27404;52.398;9.646;2023-05-17T04:49:41;101585.75;;;16.53;73.71
8160;BME280;27404;52.398;9.646;2023-05-17T04:52:07;101582.78;;;17.38;68.94
8160;BME280;27404;52.398;9.646;2023-05-17T04:54:32;101597.09;;;17.85;66.98
8160;BME280;27404;52.398;9.646;2023-05-17T04:56:58;101591.09;;;18.58;62.39
8160;BME280;27404;52.398;9.646;2023-05-17T04:59:23;101596.84;;;18.14;63.01
8160;BME280;27404;52.398;9.646;2023-05-17T05:01:49;101597.88;;;16.01;68.42
8160;BME280;27404;52.398;9.646;2023-05-17T05:04:14;101591.38;;;13.82;80.62
8160;BME280;27404;52.398;9.646;2023-05-17T05:06:40;101585.88;;;12.58;94.85
8160;BME280;27404;52.398;9.646;2023-05-17T05:09:05;101589.50;;;11.17;100.00
8160;BME280;27404;52.398;9.646;2023-05-17T05:11:31;101598.47;;;10.65;100.00
8160;BME280;27404;52.398;9.646;2023-05-17T05:13:56;101593.84;;;10.26;100.00
8160;BME280;27404;52.398;9.646;2023-05-17T05:16:23;101602.88;;;10.13;100.00
8160;BME280;27404;52.398;9.646;2023-05-17T05:18:49;101601.41;;;10.03;100.00
8160;BME280;27404;52.398;9.646;2023-05-17T05:21:14;101609.59;;;10.03;100.00
8160;BME280;27404;52.398;9.646;2023-05-17T05:23:40;101607.38;;;11.26;100.00
8160;BME280;27404;52.398;9.646;2023-05-17T05:26:05;101616.72;;;13.54;98.53
8160;BME280;27404;52.398;9.646;2023-05-17T05:28:30;101628.88;;;16.08;78.79
8160;BME280;27404;52.398;9.646;2023-05-17T05:30:57;101638.31;;;18.09;66.16
8160;BME280;27404;52.398;9.646;2023-05-17T05:33:23;101646.31;;;18.75;60.27
8160;BME280;27404;52.398;9.646;2023-05-17T05:35:49;101650.16;;;19.71;56.22
8160;BME280;27404;52.398;9.646;2023-05-17T05:38:14;101658.84;;;20.21;51.84
8160;BME280;27404;52.398;9.646;2023-05-17T05:40:40;101670.94;;;21.99;48.51
8160;BME280;27404;52.398;9.646;2023-05-17T05:43:06;101663.66;;;22.09;44.11
8160;BME280;27404;52.398;9.646;2023-05-17T05:45:31;101678.66;;;22.13;44.50
8160;BME280;27404;52.398;9.646;2023-05-17T05:47:57;101669.56;;;21.41;43.55
8160;BME280;27404;52.398;9.646;2023-05-17T05:50:22;101674.53;;;23.09;42.43
8160;BME280;27404;52.398;9.646;2023-05-17T05:52:48;101673.56;;;23.67;41.34
8160;BME280;27404;52.398;9.646;2023-05-17T05:55:13;101676.81;;;23.31;39.60
8160;BME280;27404;52.398;9.646;2023-05-17T05:57:39;101681.66;;;22.91;40.18
8160;BME280;27404;52.398;9.646;2023-05-17T06:00:05;101687.88;;;24.90;37.56
8160;BME280;27404;52.398;9.646;2023-05-17T06:02:30;101689.00;;;24.03;37.75
8160;BME280;27404;52.398;9.646;2023-05-17T06:04:56;101696.53;;;23.59;37.88
8160;BME280;27404;52.398;9.646;2023-05-17T06:07:21;101696.41;;;23.70;37.90
8160;BME280;27404;52.398;9.646;2023-05-17T06:09:47;101697.03;;;24.10;37.13
8160;BME280;27404;52.398;9.646;2023-05-17T06:12:12;101700.63;;;24.96;36.16
8160;BME280;27404;52.398;9.646;2023-05-17T06:14:38;101699.03;;;24.04;36.87
8160;BME280;27404;52.398;9.646;2023-05-17T06:17:03;101708.63;;;22.71;38.41
8160;BME280;27404;52.398;9.646;2023-05-17T06:19:29;101700.53;;;20.41;42.08
8160;BME280;27404;52.398;9.646;2023-05-17T06:21:54;101699.88;;;18.54;46.72
8160;BME280;27404;52.398;9.646;2023-05-17T06:24:20;101697.53;;;19.53;43.82
8160;BME280;27404;52.398;9.646;2023-05-17T06:26:45;101700.63;;;21.69;41.55
8160;BME280;27404;52.398;9.646;2023-05-17T06:29:14;101711.34;;;20.22;41.09
8160;BME280;27404;52.398;9.646;2023-05-17T06:31:39;101698.41;;;17.69;45.72
8160;BME280;27404;52.398;9.646;2023-05-17T06:34:04;101713.59;;;18.38;47.14
8160;BME280;27404;52.398;9.646;2023-05-17T06:36:30;101715.88;;;19.70;43.25
8160;BME280;27404;52.398;9.646;2023-05-17T06:38:55;101724.16;;;20.44;42.97
8160;BME280;27404;52.398;9.646;2023-05-17T06:41:21;101723.28;;;21.26;40.42
8160;BME280;27404;52.398;9.646;2023-05-17T06:43:46;101721.59;;;20.22;40.27
8160;BME280;27404;52.398;9.646;2023-05-17T06:46:12;101729.81;;;22.72;37.66
8160;BME280;27404;52.398;9.646;2023-05-17T06:48:37;101729.28;;;22.25;36.79
8160;BME280;27404;52.398;9.646;2023-05-17T06:51:02;101734.88;;;22.20;36.59
8160;BME280;27404;52.398;9.646;2023-05-17T06:53:28;101737.75;;;21.28;36.96
8160;BME280;27404;52.398;9.646;2023-05-17T06:55:53;101736.41;;;18.83;41.37
8160;BME280;27404;52.398;9.646;2023-05-17T06:58:19;101739.16;;;16.49;44.21
8160;BME280;27404;52.398;9.646;2023-05-17T07:00:44;101733.97;;;16.23;46.37
8160;BME280;27404;52.398;9.646;2023-05-17T07:03:10;101736.00;;;15.99;46.87
8160;BME280;27404;52.398;9.646;2023-05-17T07:05:35;101742.00;;;16.71;44.32
8160;BME280;27404;52.398;9.646;2023-05-17T07:08:01;101747.34;;;16.95;44.28
8160;BME280;27404;52.398;9.646;2023-05-17T07:10:27;101746.03;;;16.05;45.74
8160;BME280;27404;52.398;9.646;2023-05-17T07:12:52;101743.53;;;14.91;49.73
8160;BME280;27404;52.398;9.646;2023-05-17T07:15:17;101754.03;;;14.40;50.45
8160;BME280;27404;52.398;9.646;2023-05-17T07:17:43;101745.97;;;13.77;52.64
8160;BME280;27404;52.398;9.646;2023-05-17T07:20:09;101755.06;;;13.15;54.83
8160;BME280;27404;52.398;9.646;2023-05-17T07:22:36;101757.66;;;12.85;55.57
8160;BME280;27404;52.398;9.646;2023-05-17T07:25:01;101748.16;;;12.55;58.16
8160;BME280;27404;52.398;9.646;2023-05-17T07:27:27;101755.44;;;13.19;57.07
8160;BME280;27404;52.398;9.646;2023-05-17T07:29:53;101755.19;;;13.02;59.65
8160;BME280;27404;52.398;9.646;2023-05-17T07:32:18;101754.69;;;13.30;60.24
8160;BME280;27404;52.398;9.646;2023-05-17T07:34:44;101755.06;;;13.15;58.09
8160;BME280;27404;52.398;9.646;2023-05-17T07:37:10;101767.03;;;13.46;57.97
8160;BME280;27404;52.398;9.646;2023-05-17T07:39:35;101776.28;;;13.52;57.50
8160;BME280;27404;52.398;9.646;2023-05-17T07:42:01;101773.09;;;12.79;57.79
8160;BME280;27404;52.398;9.646;2023-05-17T07:44:26;101774.06;;;12.92;57.92
8160;BME280;27404;52.398;9.646;2023-05-17T07:46:52;101777.91;;;12.84;58.18
8160;BME280;27404;52.398;9.646;2023-05-17T07:49:17;101778.56;;;12.08;59.67
8160;BME280;27404;52.398;9.646;2023-05-17T07:51:42;101786.84;;;12.40;60.71
8160;BME280;27404;52.398;9.646;2023-05-17T07:54:08;101780.53;;;12.40;60.71
8160;BME280;27404;52.398;9.646;2023-05-17T07:56:34;101785.97;;;12.47;62.62
8160;BME280;27404;52.398;9.646;2023-05-17T07:58:59;101806.22;;;11.87;65.34
8160;BME280;27404;52.398;9.646;2023-05-17T08:01:25;101803.47;;;11.93;67.56
8160;BME280;27404;52.398;9.646;2023-05-17T08:03:50;101804.69;;;12.11;69.86
8160;BME280;27404;52.398;9.646;2023-05-17T08:06:16;101813.44;;;12.33;69.21
8160;BME280;27404;52.398;9.646;2023-05-17T08:08:43;101820.47;;;12.22;68.24
8160;BME280;27404;52.398;9.646;2023-05-17T08:11:09;101826.88;;;12.03;67.50
8160;BME280;27404;52.398;9.646;2023-05-17T08:13:35;101832.28;;;12.23;68.01
8160;BME280;27404;52.398;9.646;2023-05-17T08:16:01;101824.03;;;12.68;65.16
8160;BME280;27404;52.398;9.646;2023-05-17T08:18:30;101821.69;;;12.72;65.92
8160;BME280;27404;52.398;9.646;2023-05-17T08:20:56;101824.03;;;12.68;65.44
8160;BME280;27404;52.398;9.646;2023-05-17T08:23:21;101831.91;;;12.58;66.40
8160;BME280;27404;52.398;9.646;2023-05-17T08:25:47;101837.31;;;12.33;65.87
8160;BME280;27404;52.398;9.646;2023-05-17T08:28:12;101836.34;;;11.93;68.40
8160;BME280;27404;52.398;9.646;2023-05-17T08:30:38;101835.56;;;12.45;66.39
8160;BME280;27404;52.398;9.646;2023-05-17T08:33:03;101838.13;;;12.79;64.05
8160;BME280;27404;52.398;9.646;2023-05-17T08:35:29;101835.56;;;13.35;62.59
8160;BME280;27404;52.398;9.646;2023-05-17T08:37:55;101830.44;;;13.89;62.03
8160;BME280;27404;52.398;9.646;2023-05-17T08:40:21;101835.03;;;13.51;61.38
8160;BME280;27404;52.398;9.646;2023-05-17T08:42:47;101830.59;;;12.61;62.68
8160;BME280;27404;52.398;9.646;2023-05-17T08:45:14;101835.28;;;12.14;65.98
8160;BME280;27404;52.398;9.646;2023-05-17T08:47:41;101830.00;;;12.13;66.48
8160;BME280;27404;52.398;9.646;2023-05-17T08:50:07;101831.91;;;12.12;66.26
8160;BME280;27404;52.398;9.646;2023-05-17T08:52:34;101834.91;;;11.77;69.35
8160;BME280;27404;52.398;9.646;2023-05-17T08:55:00;101841.69;;;11.61;69.28
8160;BME280;27404;52.398;9.646;2023-05-17T08:57:32;101845.72;;;11.38;70.36
8160;BME280;27404;52.398;9.646;2023-05-17T08:59:58;101835.28;;;11.94;70.10
8160;BME280;27404;52.398;9.646;2023-05-17T09:02:28;101834.56;;;12.33;68.59
8160;BME280;27404;52.398;9.646;2023-05-17T09:04:55;101841.00;;;13.48;65.62
8160;BME280;27404;52.398;9.646;2023-05-17T09:07:22;101847.66;;;13.96;61.89
8160;BME280;27404;52.398;9.646;2023-05-17T09:09:51;101843.16;;;13.83;58.92
8160;BME280;27404;52.398;9.646;2023-05-17T09:12:20;101851.91;;;13.55;58.59
8160;BME280;27404;52.398;9.646;2023-05-17T09:14:45;101843.63;;;13.04;57.95
8160;BME280;27404;52.398;9.646;2023-05-17T09:17:19;101841.88;;;12.84;57.11
8160;BME280;27404;52.398;9.646;2023-05-17T09:19:46;101835.66;;;12.96;56.71
8160;BME280;27404;52.398;9.646;2023-05-17T09:22:21;101831.59;;;12.73;55.33
8160;BME280;27404;52.398;9.646;2023-05-17T09:24:46;101838.19;;;12.97;54.83
8160;BME280;27404;52.398;9.646;2023-05-17T09:27:16;101830.28;;;13.84;55.07
8160;BME280;27404;52.398;9.646;2023-05-17T09:29:44;101835.09;;;14.56;52.99
8160;BME280;27404;52.398;9.646;2023-05-17T09:32:17;101837.75;;;14.93;52.02
8160;BME280;27404;52.398;9.646;2023-05-17T09:34:45;101845.59;;;14.59;50.52
8160;BME280;27404;52.398;9.646;2023-05-17T09:37:12;101835.94;;;13.38;50.03
8160;BME280;27404;52.398;9.646;2023-05-17T09:39:39;101823.53;;;13.10;53.29
8160;BME280;27404;52.398;9.646;2023-05-17T09:42:04;101824.97;;;13.82;50.48
8160;BME280;27404;52.398;9.646;2023-05-17T09:44:30;101834.06;;;14.39;49.62
8160;BME280;27404;52.398;9.646;2023-05-17T09:46:56;101837.06;;;14.18;52.97
8160;BME280;27404;52.398;9.646;2023-05-17T09:49:25;101834.69;;;13.41;56.23
8160;BME280;27404;52.398;9.646;2023-05-17T09:51:51;101830.47;;;13.13;56.82
8160;BME280;27404;52.398;9.646;2023-05-17T09:54:16;101838.63;;;13.52;57.52
8160;BME280;27404;52.398;9.646;2023-05-17T09:56:43;101840.22;;;13.59;56.03
8160;BME280;27404;52.398;9.646;2023-05-17T09:59:15;101842.16;;;13.96;55.52
8160;BME280;27404;52.398;9.646;2023-05-17T10:01:41;101842.47;;;14.06;54.35
8160;BME280;27404;52.398;9.646;2023-05-17T10:04:08;101839.78;;;12.80;55.00
8160;BME280;27404;52.398;9.646;2023-05-17T10:06:37;101845.47;;;12.85;56.03
8160;BME280;27404;52.398;9.646;2023-05-17T10:09:05;101834.13;;;12.74;56.56
8160;BME280;27404;52.398;9.646;2023-05-17T10:11:32;101840.44;;;13.32;56.01
8160;BME280;27404;52.398;9.646;2023-05-17T10:14:10;101846.66;;;13.53;55.49
8160;BME280;27404;52.398;9.646;2023-05-17T10:16:37;101845.50;;;13.10;54.53
8160;BME280;27404;52.398;9.646;2023-05-17T10:19:03;101849.88;;;13.43;54.39
8160;BME280;27404;52.398;9.646;2023-05-17T10:21:30;101858.81;;;13.32;53.35
8160;BME280;27404;52.398;9.646;2023-05-17T10:23:57;101846.91;;;12.49;53.55
8160;BME280;27404;52.398;9.646;2023-05-17T10:26:24;101856.75;;;12.24;54.64
8160;BME280;27404;52.398;9.646;2023-05-17T10:28:50;101841.22;;;12.89;54.78
8160;BME280;27404;52.398;9.646;2023-05-17T10:31:19;101844.53;;;13.74;53.76
8160;BME280;27404;52.398;9.646;2023-05-17T10:33:45;101853.25;;;13.89;52.36
8160;BME280;27404;52.398;9.646;2023-05-17T10:36:13;101847.31;;;12.91;52.68
8160;BME280;27404;52.398;9.646;2023-05-17T10:38:41;101852.56;;;12.93;51.83
8160;BME280;27404;52.398;9.646;2023-05-17T10:41:08;101848.72;;;12.68;53.30
8160;BME280;27404;52.398;9.646;2023-05-17T10:43:36;101849.66;;;12.55;53.58
8160;BME280;27404;52.398;9.646;2023-05-17T10:46:02;101847.59;;;12.37;52.55
8160;BME280;27404;52.398;9.646;2023-05-17T10:48:28;101855.69;;;12.25;54.29
8160;BME280;27404;52.398;9.646;2023-05-17T10:50:55;101847.59;;;12.44;55.77
8160;BME280;27404;52.398;9.646;2023-05-17T10:53:20;101840.00;;;12.78;56.01
8160;BME280;27404;52.398;9.646;2023-05-17T10:55:46;101850.56;;;13.07;54.46
8160;BME280;27404;52.398;9.646;2023-05-17T10:58:19;101842.03;;;13.22;53.21
8160;BME280;27404;52.398;9.646;2023-05-17T11:00:50;101843.91;;;13.72;52.68
8160;BME280;27404;52.398;9.646;2023-05-17T11:03:20;101839.41;;;13.59;53.07
8160;BME280;27404;52.398;9.646;2023-05-17T11:08:42;101836.38;;;13.86;56.26
8160;BME280;27404;52.398;9.646;2023-05-17T11:11:16;101848.00;;;13.62;54.22
8160;BME280;27404;52.398;9.646;2023-05-17T11:13:53;101845.44;;;13.17;53.23
8160;BME280;27404;52.398;9.646;2023-05-17T11:16:21;101845.13;;;13.57;54.67
8160;BME280;27404;52.398;9.646;2023-05-17T11:18:52;101849.19;;;13.73;54.31
8160;BME280;27404;52.398;9.646;2023-05-17T11:21:20;101841.41;;;13.89;53.23
8160;BME280;27404;52.398;9.646;2023-05-17T11:23:46;101838.44;;;13.46;52.61
8160;BME280;27404;52.398;9.646;2023-05-17T11:26:36;101835.22;;;13.94;51.46
8160;BME280;27404;52.398;9.646;2023-05-17T11:29:05;101842.47;;;14.25;51.07
8160;BME280;27404;52.398;9.646;2023-05-17T11:31:33;101841.34;;;14.14;52.37
8160;BME280;27404;52.398;9.646;2023-05-17T11:33:59;101834.47;;;14.54;51.36
8160;BME280;27404;52.398;9.646;2023-05-17T11:36:26;101842.00;;;14.77;49.63
8160;BME280;27404;52.398;9.646;2023-05-17T11:39:12;101849.97;;;14.18;50.93
8160;BME280;27404;52.398;9.646;2023-05-17T11:41:41;101853.78;;;14.85;50.46
8160;BME280;27404;52.398;9.646;2023-05-17T11:44:12;101846.59;;;13.79;52.90
8160;BME280;27404;52.398;9.646;2023-05-17T11:46:38;101854.03;;;14.15;53.80
8160;BME280;27404;52.398;9.646;2023-05-17T11:49:09;101852.72;;;13.81;53.63
8160;BME280;27404;52.398;9.646;2023-05-17T11:51:35;101859.88;;;13.06;52.19
8160;BME280;27404;52.398;9.646;2023-05-17T11:54:02;101852.25;;;13.08;52.73
8160;BME280;27404;52.398;9.646;2023-05-17T11:56:33;101845.66;;;13.15;51.96
8160;BME280;27404;52.398;9.646;2023-05-17T11:58:59;101847.44;;;13.28;52.27
8160;BME280;27404;52.398;9.646;2023-05-17T12:01:26;101848.34;;;13.91;53.31
8160;BME280;27404;52.398;9.646;2023-05-17T12:03:55;101864.06;;;14.40;53.28
8160;BME280;27404;52.398;9.646;2023-05-17T12:06:24;101853.53;;;14.37;52.25
8160;BME280;27404;52.398;9.646;2023-05-17T12:08:50;101861.41;;;14.52;52.15
8160;BME280;27404;52.398;9.646;2023-05-17T12:11:16;101852.75;;;14.30;52.14
8160;BME280;27404;52.398;9.646;2023-05-17T12:13:43;101859.97;;;14.80;50.37
8160;BME280;27404;52.398;9.646;2023-05-17T12:16:12;101868.19;;;14.49;50.42
8160;BME280;27404;52.398;9.646;2023-05-17T12:18:43;101867.16;;;13.95;52.58
8160;BME280;27404;52.398;9.646;2023-05-17T12:21:11;101861.88;;;14.12;52.22
8160;BME280;27404;52.398;9.646;2023-05-17T12:23:41;101877.03;;;13.77;52.92
8160;BME280;27404;52.398;9.646;2023-05-17T12:26:15;101875.94;;;13.59;52.85
8160;BME280;27404;52.398;9.646;2023-05-17T12:28:42;101891.22;;;13.23;51.91
8160;BME280;27404;52.398;9.646;2023-05-17T12:31:11;101877.75;;;13.15;53.68
8160;BME280;27404;52.398;9.646;2023-05-17T12:33:40;101880.34;;;13.42;52.50
8160;BME280;27404;52.398;9.646;2023-05-17T12:36:07;101882.72;;;14.01;50.76
8160;BME280;27404;52.398;9.646;2023-05-17T12:38:34;101883.13;;;14.23;52.03
8160;BME280;27404;52.398;9.646;2023-05-17T12:41:03;101894.56;;;14.57;51.95
8160;BME280;27404;52.398;9.646;2023-05-17T12:43:32;101894.63;;;14.69;52.52
8160;BME280;27404;52.398;9.646;2023-05-17T12:46:04;101889.91;;;14.88;50.78
8160;BME280;27404;52.398;9.646;2023-05-17T12:48:30;101881.31;;;14.85;51.30
8160;BME280;27404;52.398;9.646;2023-05-17T12:50:55;101892.63;;;15.19;51.48
8160;BME280;27404;52.398;9.646;2023-05-17T12:53:21;101893.38;;;15.26;50.98
8160;BME280;27404;52.398;9.646;2023-05-17T12:55:47;101892.19;;;14.91;50.23
8160;BME280;27404;52.398;9.646;2023-05-17T12:58:13;101897.06;;;14.77;51.28
8160;BME280;27404;52.398;9.646;2023-05-17T13:00:39;101887.88;;;14.65;51.64
8160;BME280;27404;52.398;9.646;2023-05-17T13:03:08;101895.84;;;14.73;48.17
8160;BME280;27404;52.398;9.646;2023-05-17T13:05:34;101890.22;;;15.10;48.96
8160;BME280;27404;52.398;9.646;2023-05-17T13:08:19;101889.19;;;15.23;47.88
8160;BME280;27404;52.398;9.646;2023-05-17T13:10:45;101891.13;;;14.43;49.63
8160;BME280;27404;52.398;9.646;2023-05-17T13:13:17;101894.72;;;14.93;50.58
8160;BME280;27404;52.398;9.646;2023-05-17T13:15:44;101892.66;;;14.88;50.74